PWSweather.com
Personal Weather Stations
Station Observations
KMNHANSK2
Andys Live Weather Stations, Hanska, MN 56041

Andys Live Weather StationsHanska, MN 56041

Lat: 44.170119, Lon: -94.381619

Elevation: 1004

Station Type: Davis Instruments Vantage Pro2 Plus

http://www.madeliasliveweather.com/thompsonfarms/

High Low Average
Temperature 56.2°F13.4°F 53.2°F11.8°F 54.5°F12.5°F
Dew Point 46.9°F8.3°F 43.3°F6.3°F 44.6°F7.0°F
Winds 8.0 mph WNW12.9 mph WNW Calm Calm 1.5 mph 2.4 mph
Wind Gusts 9.0 mph14.5 mph 1.0 mph1.6 mph 4.1 mph6.6 mph
Humidity 73% 67% 69%
Pressure 29.93 in1013.50 in 29.87 in1011.50 in -
Precipitation 0.00 in0.00 in - -
Hour Temp Dew Point Humidity Winds Wind Gusts Pressure Precip Precip Rate Daily Precip Total
08:51 PM 56.2°F13.4°C 46.6°F8.1°C 70% 2.0 mph SSW3.2 kmh SSW 2.0 mph3.2 kmh 29.88 in1011.9 mb 0.00 in0.0 mm 0.00 in/hr0.0 mm/hr 0.00 in0.0 mm
08:52 PM 56.1°F13.4°C 46.5°F8.1°C 70% 2.0 mph SSW3.2 kmh SSW 3.0 mph4.8 kmh 29.88 in1011.9 mb 0.00 in0.0 mm 0.00 in/hr0.0 mm/hr 0.00 in0.0 mm
08:53 PM 56.0°F13.3°C 46.7°F8.2°C 71% 2.0 mph SSW3.2 kmh SSW 3.0 mph4.8 kmh 29.88 in1011.9 mb 0.00 in0.0 mm 0.00 in/hr0.0 mm/hr 0.00 in0.0 mm
08:54 PM 56.0°F13.3°C 46.7°F8.2°C 71% 3.0 mph SSW4.8 kmh SSW 3.0 mph4.8 kmh 29.88 in1011.9 mb 0.00 in0.0 mm 0.00 in/hr0.0 mm/hr 0.00 in0.0 mm
08:55 PM 55.9°F13.3°C 46.7°F8.2°C 71% 1.0 mph SSW1.6 kmh SSW 3.0 mph4.8 kmh 29.88 in1011.9 mb 0.00 in0.0 mm 0.00 in/hr0.0 mm/hr 0.00 in0.0 mm
08:56 PM 55.9°F13.3°C 46.7°F8.2°C 71% Calm Calm 3.0 mph4.8 kmh 29.88 in1011.9 mb 0.00 in0.0 mm 0.00 in/hr0.0 mm/hr 0.00 in0.0 mm
08:57 PM 55.9°F13.3°C 46.7°F8.2°C 71% 1.0 mph SSW1.6 kmh SSW 3.0 mph4.8 kmh 29.88 in1011.9 mb 0.00 in0.0 mm 0.00 in/hr0.0 mm/hr 0.00 in0.0 mm
08:58 PM 55.8°F13.2°C 46.6°F8.1°C 71% 1.0 mph SSW1.6 kmh SSW 3.0 mph4.8 kmh 29.88 in1011.9 mb 0.00 in0.0 mm 0.00 in/hr0.0 mm/hr 0.00 in0.0 mm
08:59 PM 55.8°F13.2°C 46.9°F8.3°C 72% 1.0 mph SSW1.6 kmh SSW 3.0 mph4.8 kmh 29.88 in1011.9 mb 0.00 in0.0 mm 0.00 in/hr0.0 mm/hr 0.00 in0.0 mm
09:00 PM 55.8°F13.2°C 46.9°F8.3°C 72% 1.0 mph SSW1.6 kmh SSW 3.0 mph4.8 kmh 29.88 in1011.9 mb 0.00 in0.0 mm 0.00 in/hr0.0 mm/hr 0.00 in0.0 mm
09:01 PM 55.7°F13.2°C 46.8°F8.2°C 72% 3.0 mph SSW4.8 kmh SSW 3.0 mph4.8 kmh 29.87 in1011.5 mb 0.00 in0.0 mm 0.00 in/hr0.0 mm/hr 0.00 in0.0 mm
09:02 PM 55.7°F13.2°C 46.8°F8.2°C 72% 2.0 mph SSW3.2 kmh SSW 3.0 mph4.8 kmh 29.87 in1011.5 mb 0.00 in0.0 mm 0.00 in/hr0.0 mm/hr 0.00 in0.0 mm
09:03 PM 55.7°F13.2°C 46.8°F8.2°C 72% 3.0 mph SSW4.8 kmh SSW 3.0 mph4.8 kmh 29.87 in1011.5 mb 0.00 in0.0 mm 0.00 in/hr0.0 mm/hr 0.00 in0.0 mm
09:04 PM 55.7°F13.2°C 46.5°F8.1°C 71% 3.0 mph SSW4.8 kmh SSW 3.0 mph4.8 kmh 29.87 in1011.5 mb 0.00 in0.0 mm 0.00 in/hr0.0 mm/hr 0.00 in0.0 mm
09:05 PM 55.6°F13.1°C 46.4°F8.0°C 71% 3.0 mph SW4.8 kmh SW 3.0 mph4.8 kmh 29.87 in1011.5 mb 0.00 in0.0 mm 0.00 in/hr0.0 mm/hr 0.00 in0.0 mm
09:06 PM 55.6°F13.1°C 46.4°F8.0°C 71% 3.0 mph SW4.8 kmh SW 4.0 mph6.4 kmh 29.88 in1011.9 mb 0.00 in0.0 mm 0.00 in/hr0.0 mm/hr 0.00 in0.0 mm
09:07 PM 55.5°F13.1°C 46.3°F7.9°C 71% 3.0 mph SW4.8 kmh SW 4.0 mph6.4 kmh 29.88 in1011.9 mb 0.00 in0.0 mm 0.00 in/hr0.0 mm/hr 0.00 in0.0 mm
09:08 PM 55.5°F13.1°C 46.3°F7.9°C 71% 4.0 mph SW6.4 kmh SW 4.0 mph6.4 kmh 29.87 in1011.5 mb 0.00 in0.0 mm 0.00 in/hr0.0 mm/hr 0.00 in0.0 mm
09:09 PM 55.4°F13.0°C 46.2°F7.9°C 71% 3.0 mph SW4.8 kmh SW 4.0 mph6.4 kmh 29.88 in1011.9 mb 0.00 in0.0 mm 0.00 in/hr0.0 mm/hr 0.00 in0.0 mm
09:10 PM 55.3°F12.9°C 46.1°F7.8°C 71% 3.0 mph SW4.8 kmh SW 4.0 mph6.4 kmh 29.87 in1011.5 mb 0.00 in0.0 mm 0.00 in/hr0.0 mm/hr 0.00 in0.0 mm
09:11 PM 55.3°F12.9°C 46.1°F7.8°C 71% 2.0 mph SW3.2 kmh SW 4.0 mph6.4 kmh 29.88 in1011.9 mb 0.00 in0.0 mm 0.00 in/hr0.0 mm/hr 0.00 in0.0 mm
09:12 PM 55.2°F12.9°C 46.0°F7.8°C 71% 1.0 mph SW1.6 kmh SW 4.0 mph6.4 kmh 29.88 in1011.9 mb 0.00 in0.0 mm 0.00 in/hr0.0 mm/hr 0.00 in0.0 mm
09:13 PM 55.1°F12.8°C 45.9°F7.7°C 71% 1.0 mph SW1.6 kmh SW 4.0 mph6.4 kmh 29.88 in1011.9 mb 0.00 in0.0 mm 0.00 in/hr0.0 mm/hr 0.00 in0.0 mm
09:14 PM 55.1°F12.8°C 45.9°F7.7°C 71% 1.0 mph SW1.6 kmh SW 4.0 mph6.4 kmh 29.88 in1011.9 mb 0.00 in0.0 mm 0.00 in/hr0.0 mm/hr 0.00 in0.0 mm
09:15 PM 55.0°F12.8°C 46.2°F7.9°C 72% Calm Calm 4.0 mph6.4 kmh 29.88 in1011.9 mb 0.00 in0.0 mm 0.00 in/hr0.0 mm/hr 0.00 in0.0 mm
09:16 PM 55.0°F12.8°C 46.2°F7.9°C 72% 1.0 mph SW1.6 kmh SW 4.0 mph6.4 kmh 29.88 in1011.9 mb 0.00 in0.0 mm 0.00 in/hr0.0 mm/hr 0.00 in0.0 mm
09:17 PM 55.0°F12.8°C 46.5°F8.1°C 73% 1.0 mph SW1.6 kmh SW 4.0 mph6.4 kmh 29.88 in1011.9 mb 0.00 in0.0 mm 0.00 in/hr0.0 mm/hr 0.00 in0.0 mm
09:18 PM 54.9°F12.7°C 46.4°F8.0°C 73% 1.0 mph SW1.6 kmh SW 4.0 mph6.4 kmh 29.88 in1011.9 mb 0.00 in0.0 mm 0.00 in/hr0.0 mm/hr 0.00 in0.0 mm
09:19 PM 54.9°F12.7°C 46.4°F8.0°C 73% 1.0 mph SW1.6 kmh SW 4.0 mph6.4 kmh 29.88 in1011.9 mb 0.00 in0.0 mm 0.00 in/hr0.0 mm/hr 0.00 in0.0 mm
09:20 PM 54.9°F12.7°C 46.4°F8.0°C 73% Calm Calm 4.0 mph6.4 kmh 29.88 in1011.9 mb 0.00 in0.0 mm 0.00 in/hr0.0 mm/hr 0.00 in0.0 mm
09:21 PM 54.8°F12.7°C 46.3°F7.9°C 73% Calm Calm 4.0 mph6.4 kmh 29.88 in1011.9 mb 0.00 in0.0 mm 0.00 in/hr0.0 mm/hr 0.00 in0.0 mm
09:22 PM 54.8°F12.7°C 46.3°F7.9°C 73% 1.0 mph SW1.6 kmh SW 4.0 mph6.4 kmh 29.88 in1011.9 mb 0.00 in0.0 mm 0.00 in/hr0.0 mm/hr 0.00 in0.0 mm
09:23 PM 54.8°F12.7°C 46.3°F7.9°C 73% Calm Calm 4.0 mph6.4 kmh 29.88 in1011.9 mb 0.00 in0.0 mm 0.00 in/hr0.0 mm/hr 0.00 in0.0 mm
09:24 PM 54.8°F12.7°C 46.3°F7.9°C 73% 1.0 mph SW1.6 kmh SW 4.0 mph6.4 kmh 29.88 in1011.9 mb 0.00 in0.0 mm 0.00 in/hr0.0 mm/hr 0.00 in0.0 mm
09:25 PM 54.8°F12.7°C 46.3°F7.9°C 73% 1.0 mph SW1.6 kmh SW 4.0 mph6.4 kmh 29.88 in1011.9 mb 0.00 in0.0 mm 0.00 in/hr0.0 mm/hr 0.00 in0.0 mm
09:26 PM 54.8°F12.7°C 46.3°F7.9°C 73% Calm Calm 4.0 mph6.4 kmh 29.88 in1011.9 mb 0.00 in0.0 mm 0.00 in/hr0.0 mm/hr 0.00 in0.0 mm
09:27 PM 54.8°F12.7°C 46.0°F7.8°C 72% 1.0 mph SW1.6 kmh SW 4.0 mph6.4 kmh 29.88 in1011.9 mb 0.00 in0.0 mm 0.00 in/hr0.0 mm/hr 0.00 in0.0 mm
09:28 PM 54.8°F12.7°C 46.0°F7.8°C 72% 1.0 mph SW1.6 kmh SW 4.0 mph6.4 kmh 29.88 in1011.9 mb 0.00 in0.0 mm 0.00 in/hr0.0 mm/hr 0.00 in0.0 mm
09:29 PM 54.8°F12.7°C 46.0°F7.8°C 72% Calm Calm 4.0 mph6.4 kmh 29.88 in1011.9 mb 0.00 in0.0 mm 0.00 in/hr0.0 mm/hr 0.00 in0.0 mm
09:30 PM 54.9°F12.7°C 46.4°F8.0°C 73% Calm Calm 4.0 mph6.4 kmh 29.88 in1011.9 mb 0.00 in0.0 mm 0.00 in/hr0.0 mm/hr 0.00 in0.0 mm
09:31 PM 54.9°F12.7°C 46.4°F8.0°C 73% 2.0 mph SW3.2 kmh SW 4.0 mph6.4 kmh 29.88 in1011.9 mb 0.00 in0.0 mm 0.00 in/hr0.0 mm/hr 0.00 in0.0 mm
09:32 PM 54.9°F12.7°C 46.1°F7.8°C 72% Calm Calm 1.0 mph1.6 kmh 29.88 in1011.9 mb 0.00 in0.0 mm 0.00 in/hr0.0 mm/hr 0.00 in0.0 mm
09:33 PM 54.9°F12.7°C 46.1°F7.8°C 72% 1.0 mph SW1.6 kmh SW 3.0 mph4.8 kmh 29.88 in1011.9 mb 0.00 in0.0 mm 0.00 in/hr0.0 mm/hr 0.00 in0.0 mm
09:34 PM 55.0°F12.8°C 46.2°F7.9°C 72% 4.0 mph SW6.4 kmh SW 4.0 mph6.4 kmh 29.88 in1011.9 mb 0.00 in0.0 mm 0.00 in/hr0.0 mm/hr 0.00 in0.0 mm
09:35 PM 55.0°F12.8°C 46.2°F7.9°C 72% 2.0 mph SW3.2 kmh SW 4.0 mph6.4 kmh 29.88 in1011.9 mb 0.00 in0.0 mm 0.00 in/hr0.0 mm/hr 0.00 in0.0 mm
09:36 PM 55.1°F12.8°C 45.9°F7.7°C 71% 2.0 mph SW3.2 kmh SW 4.0 mph6.4 kmh 29.88 in1011.9 mb 0.00 in0.0 mm 0.00 in/hr0.0 mm/hr 0.00 in0.0 mm
09:37 PM 55.1°F12.8°C 45.9°F7.7°C 71% 1.0 mph SW1.6 kmh SW 4.0 mph6.4 kmh 29.88 in1011.9 mb 0.00 in0.0 mm 0.00 in/hr0.0 mm/hr 0.00 in0.0 mm
09:38 PM 55.1°F12.8°C 45.9°F7.7°C 71% 1.0 mph SW1.6 kmh SW 4.0 mph6.4 kmh 29.88 in1011.9 mb 0.00 in0.0 mm 0.00 in/hr0.0 mm/hr 0.00 in0.0 mm
09:39 PM 55.2°F12.9°C 46.0°F7.8°C 71% 1.0 mph SW1.6 kmh SW 4.0 mph6.4 kmh 29.88 in1011.9 mb 0.00 in0.0 mm 0.00 in/hr0.0 mm/hr 0.00 in0.0 mm
09:40 PM 55.2°F12.9°C 46.0°F7.8°C 71% Calm Calm 4.0 mph6.4 kmh 29.88 in1011.9 mb 0.00 in0.0 mm 0.00 in/hr0.0 mm/hr 0.00 in0.0 mm
09:41 PM 55.2°F12.9°C 46.0°F7.8°C 71% 1.0 mph SW1.6 kmh SW 4.0 mph6.4 kmh 29.88 in1011.9 mb 0.00 in0.0 mm 0.00 in/hr0.0 mm/hr 0.00 in0.0 mm
09:42 PM 55.3°F12.9°C 45.7°F7.6°C 70% 1.0 mph SW1.6 kmh SW 4.0 mph6.4 kmh 29.88 in1011.9 mb 0.00 in0.0 mm 0.00 in/hr0.0 mm/hr 0.00 in0.0 mm
09:43 PM 55.3°F12.9°C 45.7°F7.6°C 70% 1.0 mph SW1.6 kmh SW 4.0 mph6.4 kmh 29.88 in1011.9 mb 0.00 in0.0 mm 0.00 in/hr0.0 mm/hr 0.00 in0.0 mm
09:44 PM 55.3°F12.9°C 45.7°F7.6°C 70% 1.0 mph SW1.6 kmh SW 4.0 mph6.4 kmh 29.88 in1011.9 mb 0.00 in0.0 mm 0.00 in/hr0.0 mm/hr 0.00 in0.0 mm
09:45 PM 55.2°F12.9°C 45.6°F7.6°C 70% Calm Calm 4.0 mph6.4 kmh 29.88 in1011.9 mb 0.00 in0.0 mm 0.00 in/hr0.0 mm/hr 0.00 in0.0 mm
09:46 PM 55.2°F12.9°C 45.6°F7.6°C 70% 1.0 mph SW1.6 kmh SW 4.0 mph6.4 kmh 29.88 in1011.9 mb 0.00 in0.0 mm 0.00 in/hr0.0 mm/hr 0.00 in0.0 mm
09:47 PM 55.2°F12.9°C 45.6°F7.6°C 70% 1.0 mph SW1.6 kmh SW 4.0 mph6.4 kmh 29.88 in1011.9 mb 0.00 in0.0 mm 0.00 in/hr0.0 mm/hr 0.00 in0.0 mm
09:48 PM 55.2°F12.9°C 45.6°F7.6°C 70% 3.0 mph SW4.8 kmh SW 4.0 mph6.4 kmh 29.88 in1011.9 mb 0.00 in0.0 mm 0.00 in/hr0.0 mm/hr 0.00 in0.0 mm
09:49 PM 55.2°F12.9°C 45.2°F7.3°C 69% 1.0 mph SW1.6 kmh SW 4.0 mph6.4 kmh 29.88 in1011.9 mb 0.00 in0.0 mm 0.00 in/hr0.0 mm/hr 0.00 in0.0 mm
09:50 PM 55.2°F12.9°C 45.2°F7.3°C 69% 2.0 mph SW3.2 kmh SW 4.0 mph6.4 kmh 29.88 in1011.9 mb 0.00 in0.0 mm 0.00 in/hr0.0 mm/hr 0.00 in0.0 mm
09:51 PM 55.2°F12.9°C 45.2°F7.3°C 69% 1.0 mph SW1.6 kmh SW 4.0 mph6.4 kmh 29.88 in1011.9 mb 0.00 in0.0 mm 0.00 in/hr0.0 mm/hr 0.00 in0.0 mm
09:52 PM 55.1°F12.8°C 45.1°F7.3°C 69% 2.0 mph SW3.2 kmh SW 4.0 mph6.4 kmh 29.88 in1011.9 mb 0.00 in0.0 mm 0.00 in/hr0.0 mm/hr 0.00 in0.0 mm
09:53 PM 55.1°F12.8°C 45.1°F7.3°C 69% 2.0 mph SW3.2 kmh SW 4.0 mph6.4 kmh 29.88 in1011.9 mb 0.00 in0.0 mm 0.00 in/hr0.0 mm/hr 0.00 in0.0 mm
09:54 PM 55.1°F12.8°C 44.7°F7.1°C 68% 2.0 mph SW3.2 kmh SW 4.0 mph6.4 kmh 29.88 in1011.9 mb 0.00 in0.0 mm 0.00 in/hr0.0 mm/hr 0.00 in0.0 mm
09:55 PM 55.0°F12.8°C 44.7°F7.1°C 68% 3.0 mph SW4.8 kmh SW 4.0 mph6.4 kmh 29.88 in1011.9 mb 0.00 in0.0 mm 0.00 in/hr0.0 mm/hr 0.00 in0.0 mm
09:56 PM 55.0°F12.8°C 44.7°F7.1°C 68% 2.0 mph SW3.2 kmh SW 4.0 mph6.4 kmh 29.88 in1011.9 mb 0.00 in0.0 mm 0.00 in/hr0.0 mm/hr 0.00 in0.0 mm
09:57 PM 55.0°F12.8°C 44.7°F7.1°C 68% 2.0 mph SW3.2 kmh SW 4.0 mph6.4 kmh 29.88 in1011.9 mb 0.00 in0.0 mm 0.00 in/hr0.0 mm/hr 0.00 in0.0 mm
09:58 PM 54.9°F12.7°C 44.6°F7.0°C 68% 1.0 mph SW1.6 kmh SW 4.0 mph6.4 kmh 29.88 in1011.9 mb 0.00 in0.0 mm 0.00 in/hr0.0 mm/hr 0.00 in0.0 mm
09:59 PM 54.9°F12.7°C 44.6°F7.0°C 68% 2.0 mph SW3.2 kmh SW 4.0 mph6.4 kmh 29.88 in1011.9 mb 0.00 in0.0 mm 0.00 in/hr0.0 mm/hr 0.00 in0.0 mm
10:00 PM 54.9°F12.7°C 44.6°F7.0°C 68% 2.0 mph SW3.2 kmh SW 4.0 mph6.4 kmh 29.88 in1011.9 mb 0.00 in0.0 mm 0.00 in/hr0.0 mm/hr 0.00 in0.0 mm
10:01 PM 54.8°F12.7°C 44.5°F6.9°C 68% 1.0 mph SW1.6 kmh SW 4.0 mph6.4 kmh 29.88 in1011.9 mb 0.00 in0.0 mm 0.00 in/hr0.0 mm/hr 0.00 in0.0 mm
10:02 PM 54.8°F12.7°C 44.5°F6.9°C 68% 3.0 mph SW4.8 kmh SW 3.0 mph4.8 kmh 29.88 in1011.9 mb 0.00 in0.0 mm 0.00 in/hr0.0 mm/hr 0.00 in0.0 mm
10:03 PM 54.7°F12.6°C 44.4°F6.9°C 68% 3.0 mph SW4.8 kmh SW 4.0 mph6.4 kmh 29.88 in1011.9 mb 0.00 in0.0 mm 0.00 in/hr0.0 mm/hr 0.00 in0.0 mm
10:04 PM 54.7°F12.6°C 44.4°F6.9°C 68% 2.0 mph SW3.2 kmh SW 4.0 mph6.4 kmh 29.88 in1011.9 mb 0.00 in0.0 mm 0.00 in/hr0.0 mm/hr 0.00 in0.0 mm
10:05 PM 54.6°F12.6°C 44.3°F6.8°C 68% 2.0 mph SW3.2 kmh SW 4.0 mph6.4 kmh 29.88 in1011.9 mb 0.00 in0.0 mm 0.00 in/hr0.0 mm/hr 0.00 in0.0 mm
10:06 PM 54.6°F12.6°C 44.3°F6.8°C 68% 2.0 mph SW3.2 kmh SW 4.0 mph6.4 kmh 29.88 in1011.9 mb 0.00 in0.0 mm 0.00 in/hr0.0 mm/hr 0.00 in0.0 mm
10:07 PM 54.5°F12.5°C 44.2°F6.8°C 68% 2.0 mph SW3.2 kmh SW 4.0 mph6.4 kmh 29.88 in1011.9 mb 0.00 in0.0 mm 0.00 in/hr0.0 mm/hr 0.00 in0.0 mm
10:08 PM 54.5°F12.5°C 44.2°F6.8°C 68% 2.0 mph SW3.2 kmh SW 4.0 mph6.4 kmh 29.88 in1011.9 mb 0.00 in0.0 mm 0.00 in/hr0.0 mm/hr 0.00 in0.0 mm
10:09 PM 54.5°F12.5°C 44.2°F6.8°C 68% 1.0 mph SW1.6 kmh SW 4.0 mph6.4 kmh 29.88 in1011.9 mb 0.00 in0.0 mm 0.00 in/hr0.0 mm/hr 0.00 in0.0 mm
10:10 PM 54.4°F12.4°C 44.1°F6.7°C 68% 1.0 mph SW1.6 kmh SW 4.0 mph6.4 kmh 29.88 in1011.9 mb 0.00 in0.0 mm 0.00 in/hr0.0 mm/hr 0.00 in0.0 mm
10:11 PM 54.4°F12.4°C 44.1°F6.7°C 68% 3.0 mph SW4.8 kmh SW 4.0 mph6.4 kmh 29.88 in1011.9 mb 0.00 in0.0 mm 0.00 in/hr0.0 mm/hr 0.00 in0.0 mm
10:12 PM 54.3°F12.4°C 44.0°F6.7°C 68% 3.0 mph SW4.8 kmh SW 4.0 mph6.4 kmh 29.88 in1011.9 mb 0.00 in0.0 mm 0.00 in/hr0.0 mm/hr 0.00 in0.0 mm
10:13 PM 54.3°F12.4°C 44.0°F6.7°C 68% 2.0 mph SW3.2 kmh SW 4.0 mph6.4 kmh 29.88 in1011.9 mb 0.00 in0.0 mm 0.00 in/hr0.0 mm/hr 0.00 in0.0 mm
10:14 PM 54.3°F12.4°C 44.0°F6.7°C 68% 2.0 mph SW3.2 kmh SW 4.0 mph6.4 kmh 29.88 in1011.9 mb 0.00 in0.0 mm 0.00 in/hr0.0 mm/hr 0.00 in0.0 mm
10:15 PM 54.3°F12.4°C 44.0°F6.7°C 68% 2.0 mph SW3.2 kmh SW 4.0 mph6.4 kmh 29.88 in1011.9 mb 0.00 in0.0 mm 0.00 in/hr0.0 mm/hr 0.00 in0.0 mm
10:16 PM 54.2°F12.3°C 43.9°F6.6°C 68% 1.0 mph SW1.6 kmh SW 4.0 mph6.4 kmh 29.88 in1011.9 mb 0.00 in0.0 mm 0.00 in/hr0.0 mm/hr 0.00 in0.0 mm
10:17 PM 54.2°F12.3°C 43.9°F6.6°C 68% 1.0 mph SW1.6 kmh SW 4.0 mph6.4 kmh 29.88 in1011.9 mb 0.00 in0.0 mm 0.00 in/hr0.0 mm/hr 0.00 in0.0 mm
10:18 PM 54.2°F12.3°C 43.5°F6.4°C 67% 2.0 mph SW3.2 kmh SW 4.0 mph6.4 kmh 29.88 in1011.9 mb 0.00 in0.0 mm 0.00 in/hr0.0 mm/hr 0.00 in0.0 mm
10:19 PM 54.2°F12.3°C 43.5°F6.4°C 67% 1.0 mph SW1.6 kmh SW 4.0 mph6.4 kmh 29.88 in1011.9 mb 0.00 in0.0 mm 0.00 in/hr0.0 mm/hr 0.00 in0.0 mm
10:20 PM 54.1°F12.3°C 43.4°F6.3°C 67% 2.0 mph SW3.2 kmh SW 4.0 mph6.4 kmh 29.88 in1011.9 mb 0.00 in0.0 mm 0.00 in/hr0.0 mm/hr 0.00 in0.0 mm
10:21 PM 54.1°F12.3°C 43.4°F6.3°C 67% 2.0 mph SW3.2 kmh SW 4.0 mph6.4 kmh 29.88 in1011.9 mb 0.00 in0.0 mm 0.00 in/hr0.0 mm/hr 0.00 in0.0 mm
10:22 PM 54.1°F12.3°C 43.4°F6.3°C 67% 2.0 mph SW3.2 kmh SW 4.0 mph6.4 kmh 29.88 in1011.9 mb 0.00 in0.0 mm 0.00 in/hr0.0 mm/hr 0.00 in0.0 mm
10:23 PM 54.1°F12.3°C 43.4°F6.3°C 67% 1.0 mph SW1.6 kmh SW 4.0 mph6.4 kmh 29.88 in1011.9 mb 0.00 in0.0 mm 0.00 in/hr0.0 mm/hr 0.00 in0.0 mm
10:24 PM 54.0°F12.2°C 43.3°F6.3°C 67% 2.0 mph SW3.2 kmh SW 4.0 mph6.4 kmh 29.88 in1011.9 mb 0.00 in0.0 mm 0.00 in/hr0.0 mm/hr 0.00 in0.0 mm
10:25 PM 54.0°F12.2°C 43.3°F6.3°C 67% 2.0 mph SW3.2 kmh SW 4.0 mph6.4 kmh 29.88 in1011.9 mb 0.00 in0.0 mm 0.00 in/hr0.0 mm/hr 0.00 in0.0 mm
10:26 PM 54.0°F12.2°C 43.3°F6.3°C 67% 2.0 mph SW3.2 kmh SW 4.0 mph6.4 kmh 29.88 in1011.9 mb 0.00 in0.0 mm 0.00 in/hr0.0 mm/hr 0.00 in0.0 mm
10:27 PM 54.0°F12.2°C 43.3°F6.3°C 67% 3.0 mph SW4.8 kmh SW 4.0 mph6.4 kmh 29.88 in1011.9 mb 0.00 in0.0 mm 0.00 in/hr0.0 mm/hr 0.00 in0.0 mm
10:28 PM 54.0°F12.2°C 43.3°F6.3°C 67% 2.0 mph SW3.2 kmh SW 4.0 mph6.4 kmh 29.89 in1012.2 mb 0.00 in0.0 mm 0.00 in/hr0.0 mm/hr 0.00 in0.0 mm
10:29 PM 54.1°F12.3°C 43.4°F6.3°C 67% 1.0 mph SW1.6 kmh SW 4.0 mph6.4 kmh 29.89 in1012.2 mb 0.00 in0.0 mm 0.00 in/hr0.0 mm/hr 0.00 in0.0 mm
10:30 PM 54.1°F12.3°C 43.4°F6.3°C 67% 2.0 mph WSW3.2 kmh WSW 4.0 mph6.4 kmh 29.89 in1012.2 mb 0.00 in0.0 mm 0.00 in/hr0.0 mm/hr 0.00 in0.0 mm
10:31 PM 54.1°F12.3°C 43.4°F6.3°C 67% 2.0 mph WSW3.2 kmh WSW 4.0 mph6.4 kmh 29.89 in1012.2 mb 0.00 in0.0 mm 0.00 in/hr0.0 mm/hr 0.00 in0.0 mm
10:32 PM 54.2°F12.3°C 43.9°F6.6°C 68% Calm Calm 1.0 mph1.6 kmh 29.89 in1012.2 mb 0.00 in0.0 mm 0.00 in/hr0.0 mm/hr 0.00 in0.0 mm
10:33 PM 54.2°F12.3°C 43.9°F6.6°C 68% 1.0 mph WSW1.6 kmh WSW 2.0 mph3.2 kmh 29.89 in1012.2 mb 0.00 in0.0 mm 0.00 in/hr0.0 mm/hr 0.00 in0.0 mm
10:34 PM 54.2°F12.3°C 43.9°F6.6°C 68% 1.0 mph WSW1.6 kmh WSW 2.0 mph3.2 kmh 29.89 in1012.2 mb 0.00 in0.0 mm 0.00 in/hr0.0 mm/hr 0.00 in0.0 mm
10:35 PM 54.2°F12.3°C 43.9°F6.6°C 68% 1.0 mph WSW1.6 kmh WSW 2.0 mph3.2 kmh 29.89 in1012.2 mb 0.00 in0.0 mm 0.00 in/hr0.0 mm/hr 0.00 in0.0 mm
10:36 PM 54.3°F12.4°C 44.0°F6.7°C 68% Calm Calm 3.0 mph4.8 kmh 29.89 in1012.2 mb 0.00 in0.0 mm 0.00 in/hr0.0 mm/hr 0.00 in0.0 mm
10:37 PM 54.3°F12.4°C 44.0°F6.7°C 68% 1.0 mph SW1.6 kmh SW 3.0 mph4.8 kmh 29.89 in1012.2 mb 0.00 in0.0 mm 0.00 in/hr0.0 mm/hr 0.00 in0.0 mm
10:38 PM 54.4°F12.4°C 44.1°F6.7°C 68% Calm Calm 3.0 mph4.8 kmh 29.89 in1012.2 mb 0.00 in0.0 mm 0.00 in/hr0.0 mm/hr 0.00 in0.0 mm
10:39 PM 54.4°F12.4°C 44.1°F6.7°C 68% Calm Calm 3.0 mph4.8 kmh 29.89 in1012.2 mb 0.00 in0.0 mm 0.00 in/hr0.0 mm/hr 0.00 in0.0 mm
10:40 PM 54.4°F12.4°C 44.1°F6.7°C 68% Calm Calm 3.0 mph4.8 kmh 29.89 in1012.2 mb 0.00 in0.0 mm 0.00 in/hr0.0 mm/hr 0.00 in0.0 mm
10:41 PM 54.5°F12.5°C 44.2°F6.8°C 68% 1.0 mph SW1.6 kmh SW 3.0 mph4.8 kmh 29.89 in1012.2 mb 0.00 in0.0 mm 0.00 in/hr0.0 mm/hr 0.00 in0.0 mm
10:42 PM 54.5°F12.5°C 44.2°F6.8°C 68% 1.0 mph SW1.6 kmh SW 3.0 mph4.8 kmh 29.90 in1012.5 mb 0.00 in0.0 mm 0.00 in/hr0.0 mm/hr 0.00 in0.0 mm
10:43 PM 54.5°F12.5°C 44.2°F6.8°C 68% Calm Calm 3.0 mph4.8 kmh 29.90 in1012.5 mb 0.00 in0.0 mm 0.00 in/hr0.0 mm/hr 0.00 in0.0 mm
10:44 PM 54.6°F12.6°C 44.3°F6.8°C 68% 1.0 mph SW1.6 kmh SW 3.0 mph4.8 kmh 29.90 in1012.5 mb 0.00 in0.0 mm 0.00 in/hr0.0 mm/hr 0.00 in0.0 mm
10:45 PM 54.6°F12.6°C 44.3°F6.8°C 68% 1.0 mph SW1.6 kmh SW 3.0 mph4.8 kmh 29.90 in1012.5 mb 0.00 in0.0 mm 0.00 in/hr0.0 mm/hr 0.00 in0.0 mm
10:46 PM 54.6°F12.6°C 43.9°F6.6°C 67% 1.0 mph SW1.6 kmh SW 3.0 mph4.8 kmh 29.90 in1012.5 mb 0.00 in0.0 mm 0.00 in/hr0.0 mm/hr 0.00 in0.0 mm
10:47 PM 54.6°F12.6°C 44.3°F6.8°C 68% Calm Calm 3.0 mph4.8 kmh 29.90 in1012.5 mb 0.00 in0.0 mm 0.00 in/hr0.0 mm/hr 0.00 in0.0 mm
10:48 PM 54.6°F12.6°C 43.9°F6.6°C 67% 1.0 mph SW1.6 kmh SW 3.0 mph4.8 kmh 29.90 in1012.5 mb 0.00 in0.0 mm 0.00 in/hr0.0 mm/hr 0.00 in0.0 mm
10:49 PM 54.6°F12.6°C 43.9°F6.6°C 67% 1.0 mph SW1.6 kmh SW 3.0 mph4.8 kmh 29.90 in1012.5 mb 0.00 in0.0 mm 0.00 in/hr0.0 mm/hr 0.00 in0.0 mm
10:50 PM 54.5°F12.5°C 43.8°F6.6°C 67% 2.0 mph SW3.2 kmh SW 3.0 mph4.8 kmh 29.90 in1012.5 mb 0.00 in0.0 mm 0.00 in/hr0.0 mm/hr 0.00 in0.0 mm
10:51 PM 54.5°F12.5°C 43.8°F6.6°C 67% Calm Calm 3.0 mph4.8 kmh 29.90 in1012.5 mb 0.00 in0.0 mm 0.00 in/hr0.0 mm/hr 0.00 in0.0 mm
10:52 PM 54.5°F12.5°C 43.8°F6.6°C 67% 1.0 mph SSW1.6 kmh SSW 3.0 mph4.8 kmh 29.90 in1012.5 mb 0.00 in0.0 mm 0.00 in/hr0.0 mm/hr 0.00 in0.0 mm
10:53 PM 54.5°F12.5°C 43.8°F6.6°C 67% 1.0 mph SSW1.6 kmh SSW 3.0 mph4.8 kmh 29.90 in1012.5 mb 0.00 in0.0 mm 0.00 in/hr0.0 mm/hr 0.00 in0.0 mm
10:54 PM 54.5°F12.5°C 43.8°F6.6°C 67% 1.0 mph SSW1.6 kmh SSW 3.0 mph4.8 kmh 29.90 in1012.5 mb 0.00 in0.0 mm 0.00 in/hr0.0 mm/hr 0.00 in0.0 mm
10:55 PM 54.4°F12.4°C 43.7°F6.5°C 67% Calm Calm 3.0 mph4.8 kmh 29.90 in1012.5 mb 0.00 in0.0 mm 0.00 in/hr0.0 mm/hr 0.00 in0.0 mm
10:56 PM 54.4°F12.4°C 43.7°F6.5°C 67% Calm Calm 3.0 mph4.8 kmh 29.90 in1012.5 mb 0.00 in0.0 mm 0.00 in/hr0.0 mm/hr 0.00 in0.0 mm
10:57 PM 54.4°F12.4°C 43.7°F6.5°C 67% 2.0 mph SSW3.2 kmh SSW 3.0 mph4.8 kmh 29.90 in1012.5 mb 0.00 in0.0 mm 0.00 in/hr0.0 mm/hr 0.00 in0.0 mm
10:58 PM 54.4°F12.4°C 43.7°F6.5°C 67% 1.0 mph SSW1.6 kmh SSW 3.0 mph4.8 kmh 29.90 in1012.5 mb 0.00 in0.0 mm 0.00 in/hr0.0 mm/hr 0.00 in0.0 mm
10:59 PM 54.3°F12.4°C 43.6°F6.4°C 67% Calm Calm 3.0 mph4.8 kmh 29.90 in1012.5 mb 0.00 in0.0 mm 0.00 in/hr0.0 mm/hr 0.00 in0.0 mm
11:00 PM 54.3°F12.4°C 43.6°F6.4°C 67% Calm Calm 3.0 mph4.8 kmh 29.90 in1012.5 mb 0.00 in0.0 mm 0.00 in/hr0.0 mm/hr 0.00 in0.0 mm
11:01 PM 54.3°F12.4°C 43.6°F6.4°C 67% 1.0 mph SSW1.6 kmh SSW 3.0 mph4.8 kmh 29.90 in1012.5 mb 0.00 in0.0 mm 0.00 in/hr0.0 mm/hr 0.00 in0.0 mm
11:02 PM 54.2°F12.3°C 43.5°F6.4°C 67% 1.0 mph SSW1.6 kmh SSW 1.0 mph1.6 kmh 29.91 in1012.9 mb 0.00 in0.0 mm 0.00 in/hr0.0 mm/hr 0.00 in0.0 mm
11:03 PM 54.2°F12.3°C 43.5°F6.4°C 67% 2.0 mph S3.2 kmh S 3.0 mph4.8 kmh 29.91 in1012.9 mb 0.00 in0.0 mm 0.00 in/hr0.0 mm/hr 0.00 in0.0 mm
11:04 PM 54.2°F12.3°C 43.9°F6.6°C 68% 1.0 mph S1.6 kmh S 3.0 mph4.8 kmh 29.90 in1012.5 mb 0.00 in0.0 mm 0.00 in/hr0.0 mm/hr 0.00 in0.0 mm
11:05 PM 54.2°F12.3°C 43.9°F6.6°C 68% Calm Calm 3.0 mph4.8 kmh 29.91 in1012.9 mb 0.00 in0.0 mm 0.00 in/hr0.0 mm/hr 0.00 in0.0 mm
11:06 PM 54.1°F12.3°C 43.8°F6.6°C 68% Calm Calm 3.0 mph4.8 kmh 29.91 in1012.9 mb 0.00 in0.0 mm 0.00 in/hr0.0 mm/hr 0.00 in0.0 mm
11:07 PM 54.1°F12.3°C 43.8°F6.6°C 68% 1.0 mph S1.6 kmh S 3.0 mph4.8 kmh 29.91 in1012.9 mb 0.00 in0.0 mm 0.00 in/hr0.0 mm/hr 0.00 in0.0 mm
11:08 PM 54.1°F12.3°C 43.8°F6.6°C 68% Calm Calm 3.0 mph4.8 kmh 29.91 in1012.9 mb 0.00 in0.0 mm 0.00 in/hr0.0 mm/hr 0.00 in0.0 mm
11:09 PM 54.1°F12.3°C 43.8°F6.6°C 68% 1.0 mph S1.6 kmh S 3.0 mph4.8 kmh 29.91 in1012.9 mb 0.00 in0.0 mm 0.00 in/hr0.0 mm/hr 0.00 in0.0 mm
11:10 PM 54.0°F12.2°C 43.7°F6.5°C 68% 1.0 mph SSE1.6 kmh SSE 3.0 mph4.8 kmh 29.91 in1012.9 mb 0.00 in0.0 mm 0.00 in/hr0.0 mm/hr 0.00 in0.0 mm
11:11 PM 54.0°F12.2°C 43.7°F6.5°C 68% 1.0 mph SSE1.6 kmh SSE 3.0 mph4.8 kmh 29.91 in1012.9 mb 0.00 in0.0 mm 0.00 in/hr0.0 mm/hr 0.00 in0.0 mm
11:12 PM 54.0°F12.2°C 43.7°F6.5°C 68% Calm Calm 3.0 mph4.8 kmh 29.91 in1012.9 mb 0.00 in0.0 mm 0.00 in/hr0.0 mm/hr 0.00 in0.0 mm
11:13 PM 54.0°F12.2°C 43.7°F6.5°C 68% Calm Calm 3.0 mph4.8 kmh 29.91 in1012.9 mb 0.00 in0.0 mm 0.00 in/hr0.0 mm/hr 0.00 in0.0 mm
11:14 PM 54.0°F12.2°C 43.7°F6.5°C 68% 1.0 mph NNW1.6 kmh NNW 3.0 mph4.8 kmh 29.91 in1012.9 mb 0.00 in0.0 mm 0.00 in/hr0.0 mm/hr 0.00 in0.0 mm
11:15 PM 54.0°F12.2°C 43.7°F6.5°C 68% 2.0 mph NNW3.2 kmh NNW 3.0 mph4.8 kmh 29.91 in1012.9 mb 0.00 in0.0 mm 0.00 in/hr0.0 mm/hr 0.00 in0.0 mm
11:16 PM 53.9°F12.2°C 43.6°F6.4°C 68% 2.0 mph W3.2 kmh W 7.0 mph11.3 kmh 29.91 in1012.9 mb 0.00 in0.0 mm 0.00 in/hr0.0 mm/hr 0.00 in0.0 mm
11:17 PM 53.9°F12.2°C 43.6°F6.4°C 68% 1.0 mph WSW1.6 kmh WSW 7.0 mph11.3 kmh 29.91 in1012.9 mb 0.00 in0.0 mm 0.00 in/hr0.0 mm/hr 0.00 in0.0 mm
11:18 PM 54.0°F12.2°C 43.7°F6.5°C 68% 2.0 mph S3.2 kmh S 7.0 mph11.3 kmh 29.91 in1012.9 mb 0.00 in0.0 mm 0.00 in/hr0.0 mm/hr 0.00 in0.0 mm
11:19 PM 54.0°F12.2°C 43.7°F6.5°C 68% 1.0 mph S1.6 kmh S 7.0 mph11.3 kmh 29.91 in1012.9 mb 0.00 in0.0 mm 0.00 in/hr0.0 mm/hr 0.00 in0.0 mm
11:20 PM 54.0°F12.2°C 43.7°F6.5°C 68% 1.0 mph SSE1.6 kmh SSE 7.0 mph11.3 kmh 29.92 in1013.2 mb 0.00 in0.0 mm 0.00 in/hr0.0 mm/hr 0.00 in0.0 mm
11:21 PM 54.0°F12.2°C 43.7°F6.5°C 68% 1.0 mph SSW1.6 kmh SSW 7.0 mph11.3 kmh 29.92 in1013.2 mb 0.00 in0.0 mm 0.00 in/hr0.0 mm/hr 0.00 in0.0 mm
11:22 PM 54.0°F12.2°C 43.7°F6.5°C 68% Calm Calm 7.0 mph11.3 kmh 29.92 in1013.2 mb 0.00 in0.0 mm 0.00 in/hr0.0 mm/hr 0.00 in0.0 mm
11:23 PM 54.0°F12.2°C 43.7°F6.5°C 68% 1.0 mph WSW1.6 kmh WSW 7.0 mph11.3 kmh 29.92 in1013.2 mb 0.00 in0.0 mm 0.00 in/hr0.0 mm/hr 0.00 in0.0 mm
11:24 PM 54.0°F12.2°C 43.7°F6.5°C 68% Calm Calm 7.0 mph11.3 kmh 29.92 in1013.2 mb 0.00 in0.0 mm 0.00 in/hr0.0 mm/hr 0.00 in0.0 mm
11:25 PM 54.0°F12.2°C 43.7°F6.5°C 68% 2.0 mph WSW3.2 kmh WSW 7.0 mph11.3 kmh 29.92 in1013.2 mb 0.00 in0.0 mm 0.00 in/hr0.0 mm/hr 0.00 in0.0 mm
11:26 PM 54.0°F12.2°C 43.7°F6.5°C 68% Calm Calm 7.0 mph11.3 kmh 29.92 in1013.2 mb 0.00 in0.0 mm 0.00 in/hr0.0 mm/hr 0.00 in0.0 mm
11:27 PM 54.0°F12.2°C 43.7°F6.5°C 68% 1.0 mph WSW1.6 kmh WSW 7.0 mph11.3 kmh 29.92 in1013.2 mb 0.00 in0.0 mm 0.00 in/hr0.0 mm/hr 0.00 in0.0 mm
11:28 PM 54.0°F12.2°C 43.7°F6.5°C 68% 1.0 mph WSW1.6 kmh WSW 7.0 mph11.3 kmh 29.92 in1013.2 mb 0.00 in0.0 mm 0.00 in/hr0.0 mm/hr 0.00 in0.0 mm
11:29 PM 54.0°F12.2°C 43.7°F6.5°C 68% 1.0 mph NW1.6 kmh NW 7.0 mph11.3 kmh 29.92 in1013.2 mb 0.00 in0.0 mm 0.00 in/hr0.0 mm/hr 0.00 in0.0 mm
11:30 PM 54.0°F12.2°C 44.1°F6.7°C 69% 1.0 mph NW1.6 kmh NW 7.0 mph11.3 kmh 29.92 in1013.2 mb 0.00 in0.0 mm 0.00 in/hr0.0 mm/hr 0.00 in0.0 mm
11:31 PM 53.9°F12.2°C 44.0°F6.7°C 69% Calm Calm 7.0 mph11.3 kmh 29.92 in1013.2 mb 0.00 in0.0 mm 0.00 in/hr0.0 mm/hr 0.00 in0.0 mm
11:32 PM 53.9°F12.2°C 44.0°F6.7°C 69% Calm Calm 1.0 mph1.6 kmh 29.92 in1013.2 mb 0.00 in0.0 mm 0.00 in/hr0.0 mm/hr 0.00 in0.0 mm
11:33 PM 53.9°F12.2°C 44.0°F6.7°C 69% Calm Calm 1.0 mph1.6 kmh 29.92 in1013.2 mb 0.00 in0.0 mm 0.00 in/hr0.0 mm/hr 0.00 in0.0 mm
11:34 PM 53.9°F12.2°C 44.0°F6.7°C 69% Calm Calm 1.0 mph1.6 kmh 29.92 in1013.2 mb 0.00 in0.0 mm 0.00 in/hr0.0 mm/hr 0.00 in0.0 mm
11:35 PM 53.9°F12.2°C 44.0°F6.7°C 69% Calm Calm 1.0 mph1.6 kmh 29.92 in1013.2 mb 0.00 in0.0 mm 0.00 in/hr0.0 mm/hr 0.00 in0.0 mm
11:36 PM 53.9°F12.2°C 44.0°F6.7°C 69% Calm Calm 1.0 mph1.6 kmh 29.92 in1013.2 mb 0.00 in0.0 mm 0.00 in/hr0.0 mm/hr 0.00 in0.0 mm
11:37 PM 53.9°F12.2°C 44.0°F6.7°C 69% Calm Calm 1.0 mph1.6 kmh 29.92 in1013.2 mb 0.00 in0.0 mm 0.00 in/hr0.0 mm/hr 0.00 in0.0 mm
11:38 PM 53.8°F12.1°C 43.9°F6.6°C 69% 1.0 mph SE1.6 kmh SE 2.0 mph3.2 kmh 29.92 in1013.2 mb 0.00 in0.0 mm 0.00 in/hr0.0 mm/hr 0.00 in0.0 mm
11:39 PM 53.8°F12.1°C 43.9°F6.6°C 69% 3.0 mph SW4.8 kmh SW 5.0 mph8.0 kmh 29.92 in1013.2 mb 0.00 in0.0 mm 0.00 in/hr0.0 mm/hr 0.00 in0.0 mm
11:40 PM 53.7°F12.1°C 43.8°F6.6°C 69% 2.0 mph NW3.2 kmh NW 5.0 mph8.0 kmh 29.93 in1013.5 mb 0.00 in0.0 mm 0.00 in/hr0.0 mm/hr 0.00 in0.0 mm
11:41 PM 53.7°F12.1°C 43.8°F6.6°C 69% 1.0 mph NW1.6 kmh NW 5.0 mph8.0 kmh 29.92 in1013.2 mb 0.00 in0.0 mm 0.00 in/hr0.0 mm/hr 0.00 in0.0 mm
11:42 PM 53.6°F12.0°C 43.7°F6.5°C 69% 3.0 mph W4.8 kmh W 5.0 mph8.0 kmh 29.92 in1013.2 mb 0.00 in0.0 mm 0.00 in/hr0.0 mm/hr 0.00 in0.0 mm
11:43 PM 53.6°F12.0°C 43.7°F6.5°C 69% 1.0 mph WNW1.6 kmh WNW 5.0 mph8.0 kmh 29.92 in1013.2 mb 0.00 in0.0 mm 0.00 in/hr0.0 mm/hr 0.00 in0.0 mm
11:44 PM 53.5°F11.9°C 43.6°F6.4°C 69% 5.0 mph WNW8.0 kmh WNW 6.0 mph9.7 kmh 29.92 in1013.2 mb 0.00 in0.0 mm 0.00 in/hr0.0 mm/hr 0.00 in0.0 mm
11:45 PM 53.4°F11.9°C 43.9°F6.6°C 70% 4.0 mph WNW6.4 kmh WNW 6.0 mph9.7 kmh 29.92 in1013.2 mb 0.00 in0.0 mm 0.00 in/hr0.0 mm/hr 0.00 in0.0 mm
11:46 PM 53.3°F11.8°C 43.8°F6.6°C 70% 2.0 mph WNW3.2 kmh WNW 6.0 mph9.7 kmh 29.92 in1013.2 mb 0.00 in0.0 mm 0.00 in/hr0.0 mm/hr 0.00 in0.0 mm
11:47 PM 53.3°F11.8°C 43.8°F6.6°C 70% 2.0 mph WSW3.2 kmh WSW 6.0 mph9.7 kmh 29.92 in1013.2 mb 0.00 in0.0 mm 0.00 in/hr0.0 mm/hr 0.00 in0.0 mm
11:48 PM 53.2°F11.8°C 43.7°F6.5°C 70% 3.0 mph W4.8 kmh W 6.0 mph9.7 kmh 29.93 in1013.5 mb 0.00 in0.0 mm 0.00 in/hr0.0 mm/hr 0.00 in0.0 mm
11:49 PM 53.2°F11.8°C 43.7°F6.5°C 70% 8.0 mph WNW12.9 kmh WNW 8.0 mph12.9 kmh 29.92 in1013.2 mb 0.00 in0.0 mm 0.00 in/hr0.0 mm/hr 0.00 in0.0 mm
11:50 PM 53.2°F11.8°C 43.7°F6.5°C 70% 5.0 mph WNW8.0 kmh WNW 8.0 mph12.9 kmh 29.93 in1013.5 mb 0.00 in0.0 mm 0.00 in/hr0.0 mm/hr 0.00 in0.0 mm
11:51 PM 53.2°F11.8°C 43.7°F6.5°C 70% 4.0 mph W6.4 kmh W 8.0 mph12.9 kmh 29.93 in1013.5 mb 0.00 in0.0 mm 0.00 in/hr0.0 mm/hr 0.00 in0.0 mm
11:52 PM 53.2°F11.8°C 43.7°F6.5°C 70% 6.0 mph W9.7 kmh W 8.0 mph12.9 kmh 29.92 in1013.2 mb 0.00 in0.0 mm 0.00 in/hr0.0 mm/hr 0.00 in0.0 mm
11:53 PM 53.2°F11.8°C 43.7°F6.5°C 70% 5.0 mph WSW8.0 kmh WSW 9.0 mph14.5 kmh 29.93 in1013.5 mb 0.00 in0.0 mm 0.00 in/hr0.0 mm/hr 0.00 in0.0 mm
11:54 PM 53.3°F11.8°C 43.8°F6.6°C 70% 5.0 mph WNW8.0 kmh WNW 9.0 mph14.5 kmh 29.93 in1013.5 mb 0.00 in0.0 mm 0.00 in/hr0.0 mm/hr 0.00 in0.0 mm
11:55 PM 53.3°F11.8°C 43.8°F6.6°C 70% 2.0 mph WSW3.2 kmh WSW 9.0 mph14.5 kmh 29.93 in1013.5 mb 0.00 in0.0 mm 0.00 in/hr0.0 mm/hr 0.00 in0.0 mm
11:56 PM 53.3°F11.8°C 43.8°F6.6°C 70% 6.0 mph NW9.7 kmh NW 9.0 mph14.5 kmh 29.93 in1013.5 mb 0.00 in0.0 mm 0.00 in/hr0.0 mm/hr 0.00 in0.0 mm
11:57 PM 53.4°F11.9°C 43.9°F6.6°C 70% 2.0 mph WSW3.2 kmh WSW 9.0 mph14.5 kmh 29.93 in1013.5 mb 0.00 in0.0 mm 0.00 in/hr0.0 mm/hr 0.00 in0.0 mm
11:58 PM 53.5°F11.9°C 44.0°F6.7°C 70% 3.0 mph WNW4.8 kmh WNW 9.0 mph14.5 kmh 29.93 in1013.5 mb 0.00 in0.0 mm 0.00 in/hr0.0 mm/hr 0.00 in0.0 mm
11:59 PM 53.5°F11.9°C 44.0°F6.7°C 70% 5.0 mph WNW8.0 kmh WNW 9.0 mph14.5 kmh 29.93 in1013.5 mb 0.00 in0.0 mm 0.00 in/hr0.0 mm/hr 0.00 in0.0 mm